Time;durP1;ratioP1;P1;durP2;ratioP2;P2;SDS_P1;SDS_P2;PMS_P1;PMS_P2;Temp;Humidity;BMP_temperature;BMP_pressure;BME280_temperature;BME280_humidity;BME280_pressure;Samples;Min_cycle;Max_cycle;Signal;HPM_P1;HPM_P2
2021/08/24 00:01:10;;;;;;;29.38;13.45;;;;;;;12.29;76.37;100056.03;5112223;28;20044;-76
2021/08/24 00:03:35;;;;;;;29.42;13.65;;;;;;;12.22;76.49;100060.13;5110794;28;20043;-76
2021/08/24 00:06:01;;;;;;;27.73;14.05;;;;;;;12.14;76.46;100069.50;5112075;28;20055;-77
2021/08/24 00:08:27;;;;;;;27.35;13.25;;;;;;;12.13;76.78;100062.50;5111798;28;20044;-74
2021/08/24 00:10:55;;;;;;;30.83;12.82;;;;;;;12.11;76.74;100063.59;5128839;27;20042;-75
2021/08/24 00:13:22;;;;;;;;;;;;;;;12.09;76.85;100066.38;5133010;27;20035;-78
2021/08/24 00:15:49;;;;;;;29.23;12.60;;;;;;;12.08;76.79;100069.97;5132322;27;19919;-77
2021/08/24 00:18:14;;;;;;;34.95;13.68;;;;;;;12.05;76.57;100074.66;5132515;27;20523;-75
2021/08/24 00:20:42;;;;;;;30.17;14.35;;;;;;;12.01;76.74;100081.19;5132062;27;20126;-76
2021/08/24 00:23:10;;;;;;;31.33;12.40;;;;;;;11.96;77.34;100076.22;5132283;27;20106;-73
2021/08/24 00:25:37;;;;;;;28.35;14.23;;;;;;;11.89;77.06;100077.66;5132353;27;20503;-72
2021/08/24 00:28:05;;;;;;;31.15;14.10;;;;;;;11.81;77.56;100073.75;5131926;27;20410;-73
2021/08/24 00:30:30;;;;;;;36.90;14.05;;;;;;;11.80;77.85;100087.09;5131723;27;20043;-72
2021/08/24 00:32:56;;;;;;;33.58;13.98;;;;;;;11.80;77.67;100072.06;5132356;27;20050;-73
2021/08/24 00:35:22;;;;;;;33.45;13.00;;;;;;;11.80;77.76;100074.72;5131864;27;20439;-72
2021/08/24 00:37:48;;;;;;;27.23;13.60;;;;;;;11.79;77.71;100078.31;5132368;27;20042;-73
2021/08/24 00:40:15;;;;;;;30.63;14.02;;;;;;;11.76;77.83;100081.22;5132190;27;20070;-73
2021/08/24 00:42:43;;;;;;;36.25;14.23;;;;;;;11.76;77.98;100081.22;5130369;28;20411;-75
2021/08/24 00:45:10;;;;;;;28.42;13.48;;;;;;;11.75;77.83;100079.53;5132217;27;20049;-72
2021/08/24 00:47:42;;;;;;;24.88;13.57;;;;;;;11.73;78.17;100076.13;5130648;28;20038;-73
2021/08/24 00:50:22;;;;;;;32.30;13.45;;;;;;;11.73;78.30;100073.50;5131691;28;20035;-72
2021/08/24 00:52:48;;;;;;;34.00;12.82;;;;;;;11.71;78.19;100067.44;5113366;28;20043;-72
2021/08/24 00:55:15;;;;;;;33.65;15.40;;;;;;;11.65;77.99;100062.63;5131705;27;20051;-73
2021/08/24 00:57:44;;;;;;;28.67;13.60;;;;;;;11.64;78.16;100068.91;5131777;27;20070;-73
2021/08/24 01:00:10;;;;;;;28.73;14.30;;;;;;;11.65;78.16;100067.91;5130709;28;20967;-73
2021/08/24 01:02:35;;;;;;;26.90;13.40;;;;;;;11.68;78.10;100066.88;5135013;27;20050;-74
2021/08/24 01:05:02;;;;;;;32.78;14.27;;;;;;;11.71;77.99;100070.09;5135881;27;20099;-72
2021/08/24 01:07:55;;;;;;;31.55;13.38;;;;;;;11.76;78.38;100070.63;5135524;27;20376;-72
2021/08/24 01:10:25;;;;;;;33.42;13.10;;;;;;;11.84;77.72;100077.13;5122697;27;20050;-72
2021/08/24 01:13:33;;;;;;;26.80;12.70;;;;;;;11.90;77.29;100077.53;5115225;28;20097;-72
2021/08/24 01:16:10;;;;;;;30.92;13.05;;;;;;;11.97;77.20;100078.78;5035388;28;20056;-72
2021/08/24 01:19:27;;;;;;;29.05;14.70;;;;;;;11.94;76.94;100083.44;5051835;28;20087;-76
2021/08/24 01:22:17;;;;;;;27.10;12.98;;;;;;;12.02;76.33;100074.91;5029692;28;20083;-72
2021/08/24 01:24:51;;;;;;;31.35;13.18;;;;;;;12.11;76.23;100074.19;5051791;28;20107;-73
2021/08/24 01:27:30;;;;;;;30.60;14.45;;;;;;;12.20;75.79;100068.19;5051395;28;20061;-72
2021/08/24 01:30:16;;;;;;;36.05;15.30;;;;;;;12.26;75.06;100072.16;5044269;28;20509;-73
2021/08/24 01:33:03;;;;;;;31.23;16.25;;;;;;;12.18;75.65;100074.59;5071512;28;20044;-71
2021/08/24 01:35:55;;;;;;;33.55;16.90;;;;;;;12.21;75.68;100075.19;5071458;28;20052;-79
2021/08/24 01:38:26;;;;;;;38.58;17.38;;;;;;;12.29;75.40;100069.28;5071728;28;20508;-74
2021/08/24 01:40:55;;;;;;;36.42;16.73;;;;;;;12.40;75.07;100071.94;5071442;28;20447;-75
2021/08/24 01:43:27;;;;;;;33.85;16.80;;;;;;;12.48;74.78;100067.84;5054834;28;20048;-74
2021/08/24 01:46:04;;;;;;;31.98;15.00;;;;;;;12.50;74.79;100065.91;5054824;28;20716;-73
2021/08/24 01:48:37;;;;;;;33.03;15.75;;;;;;;12.26;75.17;100061.56;5054563;28;20123;-72
2021/08/24 01:51:14;;;;;;;29.15;14.43;;;;;;;12.21;75.92;100063.72;5079516;27;20055;-76
2021/08/24 01:53:54;;;;;;;25.70;14.30;;;;;;;12.20;76.08;100060.25;5134034;27;20103;-73
2021/08/24 01:56:25;;;;;;;34.65;14.73;;;;;;;12.30;76.10;100063.84;5135221;27;20422;-73
2021/08/24 01:59:16;;;;;;;34.80;15.63;;;;;;;12.42;75.59;100062.06;5133593;27;20088;-72
2021/08/24 02:01:46;;;;;;;35.10;16.02;;;;;;;12.22;74.94;100065.41;5128270;27;20055;-74
2021/08/24 02:04:17;;;;;;;31.73;15.23;;;;;;;12.18;75.35;100066.63;5133354;27;20541;-73
2021/08/24 02:06:45;;;;;;;32.70;15.98;;;;;;;12.12;75.85;100058.19;5133901;27;20047;-72
2021/08/24 02:09:19;;;;;;;32.25;15.63;;;;;;;12.16;75.45;100056.13;5134758;27;20045;-75
2021/08/24 02:11:45;;;;;;;26.42;14.20;;;;;;;12.23;75.26;100053.84;5134131;27;20075;-77
2021/08/24 02:14:14;;;;;;;32.95;15.77;;;;;;;12.33;75.11;100048.69;5132434;27;20047;-72
2021/08/24 02:16:40;;;;;;;32.67;13.65;;;;;;;12.43;75.34;100052.28;5133332;27;20043;-77
2021/08/24 02:19:10;;;;;;;34.95;14.93;;;;;;;12.42;74.72;100055.91;5133573;27;20106;-72
2021/08/24 02:21:41;;;;;;;29.52;15.65;;;;;;;12.33;75.24;100049.50;5132881;27;20103;-75
2021/08/24 02:24:11;;;;;;;27.52;14.98;;;;;;;12.33;75.32;100054.81;5133160;27;20042;-76
2021/08/24 02:26:38;;;;;;;30.90;13.70;;;;;;;12.38;75.13;100059.75;5133962;27;20380;-71
2021/08/24 02:29:04;;;;;;;27.45;12.15;;;;;;;12.40;75.08;100058.69;5132855;27;20484;-73
2021/08/24 02:31:51;;;;;;;34.00;14.13;;;;;;;12.54;74.62;100059.41;5133052;27;20058;-73
2021/08/24 02:34:28;;;;;;;25.17;13.57;;;;;;;12.63;74.56;100058.66;5133060;27;20096;-73
2021/08/24 02:37:07;;;;;;;26.67;12.02;;;;;;;12.70;74.23;100046.59;5134051;27;20047;-73
2021/08/24 02:40:01;;;;;;;22.17;11.65;;;;;;;12.70;73.76;100054.56;5133210;27;20074;-73
2021/08/24 02:42:38;;;;;;;23.30;11.45;;;;;;;12.63;74.60;100063.97;5134352;27;20054;-72
2021/08/24 02:45:08;;;;;;;23.40;11.23;;;;;;;12.72;74.31;100060.59;5098792;27;20046;-75
2021/08/24 02:47:34;;;;;;;24.42;12.43;;;;;;;12.81;73.88;100066.97;5132781;27;20589;-74
2021/08/24 02:50:02;;;;;;;28.13;11.63;;;;;;;12.87;73.45;100070.94;5132493;27;20122;-75
2021/08/24 02:52:28;;;;;;;;;;;;;;;12.83;73.22;100075.66;5133055;27;20050;-73
2021/08/24 02:54:54;;;;;;;22.67;12.00;;;;;;;12.68;73.57;100082.19;5133586;27;19922;-73
2021/08/24 02:57:20;;;;;;;29.08;12.05;;;;;;;12.76;73.92;100080.59;5133871;27;20376;-71
2021/08/24 02:59:45;;;;;;;20.45;11.20;;;;;;;12.99;73.02;100080.56;5133710;27;20411;-71
2021/08/24 03:02:12;;;;;;;23.40;10.93;;;;;;;13.15;72.55;100082.00;5133900;27;20046;-77
2021/08/24 03:04:38;;;;;;;26.00;11.23;;;;;;;13.32;71.87;100084.13;5133674;27;20043;-73
2021/08/24 03:07:08;;;;;;;31.73;11.27;;;;;;;13.46;71.48;100092.78;5133597;27;20548;-71
2021/08/24 03:09:36;;;;;;;27.77;11.77;;;;;;;13.25;71.89;100090.91;5126329;27;20043;-72
2021/08/24 03:12:17;;;;;;;26.23;12.10;;;;;;;13.13;72.68;100089.22;5111883;28;20587;-76
2021/08/24 03:15:10;;;;;;;36.67;12.77;;;;;;;13.33;72.50;100083.13;5111734;28;20040;-75
2021/08/24 03:17:57;;;;;;;25.08;11.52;;;;;;;13.37;71.89;100091.69;5112599;28;20057;-75
2021/08/24 03:20:24;;;;;;;;;;;;;;;13.24;72.23;100090.03;5113315;28;20055;-75
2021/08/24 03:22:51;;;;;;;25.73;11.48;;;;;;;13.32;72.01;100085.91;5111322;28;19915;-74
2021/08/24 03:25:17;;;;;;;28.70;12.32;;;;;;;13.34;71.77;100090.13;5111338;28;20071;-72
2021/08/24 03:27:45;;;;;;;29.02;11.82;;;;;;;13.49;71.53;100093.38;5112002;28;20400;-77
2021/08/24 03:30:14;;;;;;;29.27;11.73;;;;;;;13.63;71.82;100100.19;5112715;28;20058;-72
2021/08/24 03:32:41;;;;;;;34.83;14.18;;;;;;;13.55;72.43;100092.03;5124645;27;20042;-73
2021/08/24 03:35:08;;;;;;;26.25;13.30;;;;;;;13.61;72.20;100099.50;5131607;27;20498;-73
2021/08/24 03:37:35;;;;;;;25.75;11.25;;;;;;;13.55;71.53;100097.34;5131869;27;20126;-74
2021/08/24 03:40:01;;;;;;;30.05;12.68;;;;;;;13.54;71.65;100107.09;5132248;27;20180;-76
2021/08/24 03:42:27;;;;;;;23.70;11.70;;;;;;;13.43;71.67;100097.38;5132492;27;20054;-71
2021/08/24 03:44:52;;;;;;;22.92;11.45;;;;;;;13.34;71.76;100100.75;5132337;27;20043;-75
2021/08/24 03:47:18;;;;;;;24.92;11.57;;;;;;;13.42;71.86;100098.34;5130823;27;20035;-79
2021/08/24 03:49:44;;;;;;;30.83;11.52;;;;;;;13.55;71.44;100102.66;5131260;27;20039;-71
2021/08/24 03:52:10;;;;;;;27.17;11.48;;;;;;;13.57;71.66;100106.88;5132459;27;20472;-75
2021/08/24 03:54:38;;;;;;;35.20;13.25;;;;;;;13.66;71.27;100110.59;5132117;27;20049;-74
2021/08/24 03:57:04;;;;;;;32.97;11.98;;;;;;;13.72;70.70;100109.22;5132415;27;20407;-75
2021/08/24 03:59:30;;;;;;;23.55;11.50;;;;;;;13.84;70.55;100108.19;5131429;27;20071;-74
2021/08/24 04:01:55;;;;;;;26.63;11.50;;;;;;;13.86;70.16;100108.06;5132541;27;20459;-72
2021/08/24 04:04:21;;;;;;;26.95;11.70;;;;;;;13.94;69.94;100105.59;5132649;27;20073;-72
2021/08/24 04:06:47;;;;;;;27.23;13.70;;;;;;;13.97;69.67;100109.81;5132244;27;20059;-75
2021/08/24 04:09:12;;;;;;;34.58;14.05;;;;;;;14.00;69.72;100099.75;5130796;27;20043;-79
2021/08/24 04:11:38;;;;;;;31.75;11.77;;;;;;;14.13;69.44;100102.25;5132300;27;20125;-72
2021/08/24 04:14:04;;;;;;;25.88;11.82;;;;;;;14.20;68.93;100106.03;5131463;27;20039;-76
2021/08/24 04:16:30;;;;;;;25.55;12.02;;;;;;;14.27;68.88;100114.34;5131984;27;20070;-71
2021/08/24 04:18:55;;;;;;;27.25;10.90;;;;;;;14.26;69.10;100111.84;5131688;27;20057;-82
2021/08/24 04:21:21;;;;;;;28.95;13.50;;;;;;;14.05;69.24;100110.00;5132133;27;20868;-73
2021/08/24 04:23:48;;;;;;;28.08;11.85;;;;;;;14.16;69.50;100104.63;5131179;27;20108;-73
2021/08/24 04:26:16;;;;;;;27.02;11.27;;;;;;;14.21;68.86;100109.56;5131706;27;20129;-74
2021/08/24 04:28:42;;;;;;;26.25;11.25;;;;;;;14.28;68.96;100109.88;5131844;27;20054;-72
2021/08/24 04:31:11;;;;;;;25.08;10.98;;;;;;;14.23;68.90;100102.28;5131907;27;20055;-75
2021/08/24 04:33:37;;;;;;;20.50;10.52;;;;;;;14.23;68.56;100102.28;5130934;27;20035;-77
2021/08/24 04:36:05;;;;;;;28.58;11.40;;;;;;;14.13;68.81;100112.03;5131368;27;20507;-74
2021/08/24 04:38:30;;;;;;;;;;;;;;;13.99;69.40;100116.69;5132018;27;20088;-76
2021/08/24 04:40:56;;;;;;;27.15;11.38;;;;;;;14.05;69.74;100115.34;5131897;27;19915;-74
2021/08/24 04:43:22;;;;;;;25.05;11.50;;;;;;;14.33;69.10;100097.88;5130813;28;20110;-73
2021/08/24 04:45:48;;;;;;;27.52;12.07;;;;;;;14.90;67.81;100108.06;5132688;27;20050;-73
2021/08/24 04:48:14;;;;;;;24.60;10.73;;;;;;;15.85;64.66;100108.50;5131759;27;20091;-75
2021/08/24 04:50:40;;;;;;;20.50;10.50;;;;;;;17.01;61.62;100105.59;5130047;28;20031;-72
2021/08/24 04:53:06;;;;;;;22.95;10.35;;;;;;;18.23;56.99;100104.19;5132156;27;20035;-76
2021/08/24 04:55:33;;;;;;;20.67;10.45;;;;;;;19.65;53.80;100101.84;5132649;27;20050;-73
2021/08/24 04:58:01;;;;;;;20.98;10.02;;;;;;;21.21;49.53;100101.63;5132378;28;20067;-74
2021/08/24 05:00:28;;;;;;;19.85;10.32;;;;;;;22.16;46.66;100092.34;5131390;27;20051;-73
2021/08/24 05:02:54;;;;;;;22.13;10.45;;;;;;;22.38;44.35;100101.41;5131421;27;20118;-76
2021/08/24 05:05:19;;;;;;;25.23;11.15;;;;;;;22.51;45.08;100099.94;5131120;27;20130;-75
2021/08/24 05:07:45;;;;;;;19.95;12.27;;;;;;;23.75;42.62;100086.38;5131965;27;20035;-74
2021/08/24 05:10:11;;;;;;;23.75;10.45;;;;;;;24.37;40.91;100100.19;5120592;27;20459;-78
2021/08/24 05:12:37;;;;;;;22.25;11.00;;;;;;;24.67;40.15;100089.13;5123599;28;20043;-75
2021/08/24 05:15:04;;;;;;;21.33;9.35;;;;;;;25.79;38.62;100093.38;5131360;28;20053;-73
2021/08/24 05:17:30;;;;;;;32.33;9.73;;;;;;;27.23;36.15;100084.47;5131628;27;20039;-74
2021/08/24 05:19:56;;;;;;;21.90;11.77;;;;;;;28.11;34.45;100093.66;5131103;27;20050;-75
2021/08/24 05:22:22;;;;;;;23.00;9.90;;;;;;;29.05;32.43;100079.00;5130588;28;20066;-77
2021/08/24 05:24:47;;;;;;;29.17;10.18;;;;;;;30.21;30.84;100076.97;5131737;27;20096;-79
2021/08/24 05:27:13;;;;;;;21.38;10.68;;;;;;;31.35;28.59;100083.66;5131140;27;20071;-74
2021/08/24 05:29:39;;;;;;;17.40;9.18;;;;;;;32.17;27.81;100083.34;5131062;27;20479;-75
2021/08/24 05:32:05;;;;;;;19.77;9.07;;;;;;;32.80;26.85;100085.84;5131316;28;20047;-75
2021/08/24 05:34:31;;;;;;;23.95;10.05;;;;;;;33.53;26.08;100078.09;5130241;27;20128;-75
2021/08/24 05:36:57;;;;;;;33.83;11.50;;;;;;;33.71;25.01;100079.63;5130729;28;20039;-78
2021/08/24 05:39:23;;;;;;;21.70;10.23;;;;;;;34.45;24.91;100074.34;5130318;27;20043;-75
2021/08/24 05:41:49;;;;;;;;;;;;;;;35.12;23.64;100068.28;5130417;27;20122;-75
2021/08/24 05:44:15;;;;;;;23.95;10.13;;;;;;;35.69;23.30;100066.38;5130749;27;20026;-77
2021/08/24 05:46:42;;;;;;;18.88;9.38;;;;;;;36.31;22.13;100066.25;5131419;27;20103;-76
2021/08/24 05:49:11;;;;;;;21.43;8.90;;;;;;;35.83;22.24;100063.88;5133858;27;20092;-74
2021/08/24 05:51:38;;;;;;;13.60;8.30;;;;;;;35.91;21.45;100068.84;5134412;27;20066;-78
2021/08/24 05:54:05;;;;;;;16.63;7.15;;;;;;;36.05;21.30;100065.50;5134709;27;20125;-78
2021/08/24 05:56:31;;;;;;;16.83;6.95;;;;;;;36.79;21.09;100065.81;5133445;27;20468;-76
2021/08/24 05:58:57;;;;;;;15.75;6.25;;;;;;;37.52;20.28;100067.00;5133713;27;20050;-79
2021/08/24 06:01:32;;;;;;;14.25;6.10;;;;;;;37.93;19.48;100059.44;5133908;27;20054;-75
2021/08/24 06:04:00;;;;;;;21.48;6.15;;;;;;;37.61;19.15;100061.69;5134227;27;20526;-74
2021/08/24 06:06:28;;;;;;;12.80;4.07;;;;;;;38.09;18.51;100052.63;5134433;27;20180;-75
2021/08/24 06:08:55;;;;;;;13.15;4.60;;;;;;;38.37;17.56;100050.13;5132269;27;20039;-82
2021/08/24 06:11:27;;;;;;;10.18;5.40;;;;;;;38.00;17.88;100052.47;5134132;27;20047;-73
2021/08/24 06:13:54;;;;;;;11.48;4.93;;;;;;;37.43;18.66;100056.88;5131296;27;20495;-74
2021/08/24 06:16:19;;;;;;;11.60;4.38;;;;;;;37.72;18.69;100048.56;5134722;27;20043;-79
2021/08/24 06:18:46;;;;;;;7.72;3.40;;;;;;;38.63;17.73;100049.78;5133903;27;20043;-79
2021/08/24 06:21:12;;;;;;;7.22;4.10;;;;;;;39.30;16.95;100054.38;5132609;27;20149;-78
2021/08/24 06:23:38;;;;;;;7.32;4.05;;;;;;;39.69;16.47;100058.69;5127285;27;20407;-80
2021/08/24 06:26:04;;;;;;;6.72;3.00;;;;;;;39.60;16.41;100054.97;5134121;27;20046;-75
2021/08/24 06:28:30;;;;;;;4.70;2.88;;;;;;;39.70;16.08;100056.75;5134420;27;20103;-87
2021/08/24 06:30:56;;;;;;;5.93;3.92;;;;;;;39.97;15.60;100061.50;5133742;27;20043;-80
2021/08/24 06:33:27;;;;;;;7.60;2.50;;;;;;;38.40;15.82;100057.81;5132220;27;20361;-81
2021/08/24 06:35:53;;;;;;;4.88;2.03;;;;;;;37.08;17.90;100070.63;5086090;28;20040;-77
2021/08/24 06:38:19;;;;;;;5.35;2.38;;;;;;;38.27;16.56;100066.78;5114066;28;20043;-76
2021/08/24 06:40:45;;;;;;;11.25;2.38;;;;;;;38.04;16.51;100069.28;5130268;27;20499;-78
2021/08/24 06:43:11;;;;;;;7.43;2.05;;;;;;;35.08;19.07;100065.22;5099622;27;20121;-79
2021/08/24 06:45:37;;;;;;;3.20;1.67;;;;;;;34.12;19.29;100059.03;5134035;27;20047;-83
2021/08/24 06:48:04;;;;;;;4.57;1.83;;;;;;;33.98;20.37;100064.19;5132772;27;20039;-79
2021/08/24 06:50:31;;;;;;;7.20;1.73;;;;;;;33.62;21.16;100066.66;5133950;27;20035;-78
2021/08/24 06:52:57;;;;;;;9.23;2.30;;;;;;;33.78;21.17;100073.91;5131431;27;20054;-78
2021/08/24 06:55:25;;;;;;;4.30;2.17;;;;;;;34.25;20.11;100072.31;5132202;27;20126;-78
2021/08/24 06:57:52;;;;;;;8.35;2.63;;;;;;;34.96;20.38;100070.16;5134100;27;20055;-79
2021/08/24 07:00:22;;;;;;;6.25;2.65;;;;;;;35.91;18.73;100068.03;5134710;27;20039;-81
2021/08/24 07:02:48;;;;;;;10.23;2.90;;;;;;;35.31;19.36;100068.56;5098808;27;20043;-80
2021/08/24 07:05:15;;;;;;;;;;;;;;;35.03;19.79;100065.22;5099292;27;20031;-84
2021/08/24 07:07:41;;;;;;;6.13;2.60;;;;;;;34.73;19.42;100064.03;5134627;27;19915;-78
2021/08/24 07:10:08;;;;;;;7.15;2.65;;;;;;;34.87;20.01;100063.53;5135117;27;20046;-80
2021/08/24 07:12:34;;;;;;;10.32;5.65;;;;;;;34.92;19.88;100069.88;5115292;27;20047;-78
2021/08/24 07:15:01;;;;;;;5.15;2.95;;;;;;;35.63;19.11;100064.75;5134045;27;20571;-78
2021/08/24 07:17:26;;;;;;;7.57;2.78;;;;;;;35.24;19.25;100071.59;5134378;27;20035;-77
2021/08/24 07:19:53;;;;;;;5.80;2.80;;;;;;;36.40;18.44;100058.25;5133683;27;20483;-77
2021/08/24 07:22:19;;;;;;;6.70;2.63;;;;;;;37.17;17.88;100068.06;5134301;27;20380;-78
2021/08/24 07:24:46;;;;;;;6.50;2.75;;;;;;;35.78;18.92;100070.22;5133254;27;20562;-78
2021/08/24 07:27:11;;;;;;;10.80;2.22;;;;;;;34.15;20.00;100070.31;5132072;27;20399;-76
2021/08/24 07:29:37;;;;;;;4.90;3.25;;;;;;;33.45;20.90;100075.00;5133167;27;20059;-74
2021/08/24 07:32:05;;;;;;;4.85;1.80;;;;;;;32.29;21.63;100072.31;5133689;27;20042;-77
2021/08/24 07:34:31;;;;;;;;;;;;;;;34.57;19.74;100073.28;5132396;27;20083;-78
2021/08/24 07:36:57;;;;;;;4.38;1.70;;;;;;;36.62;17.57;100076.38;5132364;27;20010;-80
2021/08/24 07:39:23;;;;;;;3.35;1.80;;;;;;;37.82;16.44;100062.34;5133684;27;20054;-81
2021/08/24 07:41:49;;;;;;;4.35;2.80;;;;;;;35.15;17.73;100075.97;5114773;27;20062;-83
2021/08/24 07:44:15;;;;;;;8.00;3.17;;;;;;;35.75;17.50;100064.44;5132441;27;20047;-80
2021/08/24 07:46:40;;;;;;;15.30;2.92;;;;;;;35.78;17.15;100061.97;5131697;27;20500;-76
2021/08/24 07:49:06;;;;;;;4.25;2.20;;;;;;;36.16;17.19;100064.38;5132809;27;20115;-83
2021/08/24 07:51:32;;;;;;;4.67;2.03;;;;;;;36.69;16.58;100065.84;5133288;27;20071;-83
2021/08/24 07:54:00;;;;;;;9.32;3.17;;;;;;;36.97;16.34;100058.00;5133410;27;20053;-82
2021/08/24 07:56:26;;;;;;;6.40;2.40;;;;;;;38.56;14.96;100060.38;5133070;27;20031;-84
2021/08/24 07:58:51;;;;;;;;;;;;;;;38.09;15.30;100057.34;5133102;27;20495;-78
2021/08/24 08:01:17;;;;;;;5.13;2.38;;;;;;;38.18;15.22;100056.41;5117189;27;20010;-80
2021/08/24 08:03:43;;;;;;;8.65;2.40;;;;;;;38.08;15.26;100053.75;5133667;27;20054;-79
2021/08/24 08:06:09;;;;;;;5.57;2.80;;;;;;;37.02;15.81;100058.78;5133773;27;20104;-83
2021/08/24 08:08:35;;;;;;;5.60;3.22;;;;;;;37.96;15.46;100050.56;5115309;27;20049;-82
2021/08/24 08:11:00;;;;;;;6.38;2.88;;;;;;;39.07;14.11;100054.16;5114521;27;20051;-85
2021/08/24 08:13:28;;;;;;;13.30;3.55;;;;;;;39.82;13.70;100045.16;5132496;27;20050;-82
2021/08/24 08:15:54;;;;;;;6.40;3.10;;;;;;;35.91;15.90;100057.81;5099761;27;20039;-82
2021/08/24 08:18:21;;;;;;;6.03;2.72;;;;;;;35.27;16.72;100048.22;5081988;27;20046;-82
2021/08/24 08:20:47;;;;;;;10.65;3.17;;;;;;;32.64;19.15;100049.19;5099653;27;20043;-81
2021/08/24 08:23:14;;;;;;;5.05;2.42;;;;;;;32.10;19.55;100048.78;5134157;27;20096;-80
2021/08/24 08:25:40;;;;;;;9.85;2.67;;;;;;;31.41;20.63;100041.66;5134062;27;20112;-78
2021/08/24 08:28:06;;;;;;;9.70;3.27;;;;;;;30.69;20.42;100045.78;5134385;27;20125;-78
2021/08/24 08:30:34;;;;;;;13.63;6.30;;;;;;;30.00;21.66;100041.88;5132677;27;20304;-78
2021/08/24 08:33:02;;;;;;;10.93;4.13;;;;;;;29.23;22.62;100044.59;5132711;27;20038;-79
2021/08/24 08:35:29;;;;;;;11.60;4.20;;;;;;;28.86;23.27;100042.78;5135205;27;20125;-77
2021/08/24 08:37:55;;;;;;;10.80;4.05;;;;;;;29.47;23.46;100046.34;5134143;27;20467;-78
2021/08/24 08:40:32;;;;;;;8.85;4.18;;;;;;;32.01;21.00;100035.78;5132549;27;20095;-78
2021/08/24 08:43:03;;;;;;;7.60;3.58;;;;;;;31.17;20.72;100031.94;5133659;27;20057;-80
2021/08/24 08:45:37;;;;;;;8.10;3.05;;;;;;;29.47;21.76;100031.84;5132011;28;20081;-78
2021/08/24 08:48:14;;;;;;;7.28;2.70;;;;;;;28.99;21.87;100025.44;5131296;28;20031;-79
2021/08/24 08:50:51;;;;;;;6.85;3.70;;;;;;;28.80;23.17;100033.66;5106448;28;20526;-81
2021/08/24 08:53:25;;;;;;;;;;;;;;;29.85;21.71;100034.13;5129486;28;20410;-77
2021/08/24 08:56:21;;;;;;;16.08;6.80;;;;;;;32.72;18.76;100029.56;5131002;28;19915;-79
2021/08/24 08:58:57;;;;;;;13.52;6.38;;;;;;;33.44;17.43;100029.50;5122222;28;20058;-77
2021/08/24 09:02:00;;;;;;;14.82;8.52;;;;;;;32.08;18.14;100036.44;5131215;28;20043;-77
2021/08/24 09:04:30;;;;;;;11.70;5.82;;;;;;;29.78;19.70;100029.88;5132171;28;20058;-81
2021/08/24 09:06:59;;;;;;;10.40;4.38;;;;;;;28.29;22.01;100038.44;5131626;28;20118;-78
2021/08/24 09:09:26;;;;;;;12.90;6.47;;;;;;;27.40;22.33;100031.31;5130928;28;20544;-77
2021/08/24 09:11:52;;;;;;;8.00;3.53;;;;;;;27.67;22.48;100031.06;5132505;28;20134;-77
2021/08/24 09:14:30;;;;;;;16.73;9.07;;;;;;;26.79;23.24;100038.13;5133253;27;20051;-79
2021/08/24 09:17:02;;;;;;;15.32;5.75;;;;;;;26.46;24.14;100036.38;5131220;28;20047;-77
2021/08/24 09:19:57;;;;;;;6.32;2.72;;;;;;;26.34;24.44;100032.66;5132054;28;20042;-76
2021/08/24 09:22:23;;;;;;;10.10;3.40;;;;;;;26.22;25.51;100038.72;5132142;27;20597;-76
2021/08/24 09:24:49;;;;;;;9.15;4.00;;;;;;;25.73;26.11;100032.72;5137122;27;20047;-83
2021/08/24 09:27:19;;;;;;;8.60;5.13;;;;;;;25.52;26.71;100039.19;5135711;27;20131;-81
2021/08/24 09:29:47;;;;;;;11.35;5.03;;;;;;;25.35;26.95;100031.44;5135387;27;20110;-77
2021/08/24 09:32:19;;;;;;;14.38;5.18;;;;;;;25.49;27.02;100026.06;5136215;27;20414;-82
2021/08/24 09:34:48;;;;;;;13.77;5.97;;;;;;;26.09;26.71;100031.44;5136146;27;20483;-76
2021/08/24 09:37:20;;;;;;;26.50;11.65;;;;;;;27.89;25.46;100026.06;5135034;27;20097;-80
2021/08/24 09:39:52;;;;;;;18.77;8.65;;;;;;;29.43;22.54;100020.59;5136062;27;20043;-76
2021/08/24 09:42:30;;;;;;;21.02;11.70;;;;;;;29.05;22.38;100024.53;5136831;27;20046;-84
2021/08/24 09:45:21;;;;;;;25.02;11.82;;;;;;;28.93;21.32;100021.75;5136664;27;20078;-78
2021/08/24 09:47:56;;;;;;;15.90;7.50;;;;;;;28.18;21.36;100026.41;5134914;27;20042;-77
2021/08/24 09:50:28;;;;;;;20.25;10.07;;;;;;;26.96;22.91;100033.84;5136170;27;20091;-80
2021/08/24 09:52:54;;;;;;;15.27;6.72;;;;;;;26.09;23.70;100025.19;5119015;27;20103;-76
2021/08/24 09:55:27;;;;;;;12.30;6.32;;;;;;;25.71;25.04;100028.53;5118728;27;20039;-80
2021/08/24 09:57:56;;;;;;;13.63;6.18;;;;;;;25.52;25.50;100025.63;5135600;27;20035;-77
2021/08/24 10:00:55;;;;;;;10.35;4.82;;;;;;;25.60;26.05;100030.84;5136343;27;20514;-83
2021/08/24 10:03:41;;;;;;;14.90;8.93;;;;;;;25.34;26.06;100029.75;5135809;27;20050;-81
2021/08/24 10:06:38;;;;;;;8.77;4.70;;;;;;;24.84;27.66;100031.97;5137092;27;20066;-80
2021/08/24 10:09:27;;;;;;;7.18;4.03;;;;;;;24.77;28.05;100023.81;5134871;27;20031;-81
2021/08/24 10:11:53;;;;;;;12.07;5.70;;;;;;;24.67;28.42;100032.34;5117059;28;20040;-81
2021/08/24 10:14:28;;;;;;;12.00;6.13;;;;;;;24.31;29.30;100036.09;5115499;28;20090;-78
2021/08/24 10:16:57;;;;;;;16.92;6.13;;;;;;;23.88;29.97;100036.19;5115247;28;20043;-78
2021/08/24 10:19:28;;;;;;;9.80;3.60;;;;;;;24.12;29.11;100031.41;5114421;28;20052;-76
2021/08/24 10:22:16;;;;;;;7.70;3.50;;;;;;;24.40;29.06;100039.47;5098090;28;20043;-80
2021/08/24 10:25:13;;;;;;;6.75;3.08;;;;;;;24.63;29.05;100028.31;5115265;28;20040;-81
2021/08/24 10:27:43;;;;;;;8.75;3.42;;;;;;;24.80;28.63;100031.53;5114383;28;20158;-78
2021/08/24 10:30:16;;;;;;;10.20;4.05;;;;;;;24.85;29.22;100030.94;5115002;27;20096;-77
2021/08/24 10:32:56;;;;;;;7.70;3.83;;;;;;;24.99;28.91;100032.63;5097286;28;20377;-77
2021/08/24 10:35:25;;;;;;;10.75;3.75;;;;;;;25.01;28.95;100029.69;5115220;28;20048;-77
2021/08/24 10:37:51;;;;;;;9.32;3.50;;;;;;;25.48;29.31;100029.81;5115432;28;20043;-78
2021/08/24 10:40:21;;;;;;;20.08;11.75;;;;;;;25.92;28.02;100024.78;5096611;28;20060;-76
2021/08/24 10:43:25;;;;;;;12.43;4.35;;;;;;;26.20;26.94;100021.84;5116036;28;20043;-80
2021/08/24 10:46:00;;;;;;;8.70;4.13;;;;;;;26.68;25.78;100023.34;5115106;28;20039;-78
2021/08/24 10:48:27;;;;;;;21.50;8.32;;;;;;;27.40;23.48;100020.44;5115516;28;20059;-79
2021/08/24 10:51:09;;;;;;;13.35;5.13;;;;;;;27.89;23.02;100017.91;5079826;28;20039;-78
2021/08/24 10:54:23;;;;;;;7.50;4.13;;;;;;;28.80;22.24;100014.59;5098510;28;20082;-78
2021/08/24 10:56:57;;;;;;;6.60;2.97;;;;;;;28.77;22.75;100020.50;5074219;28;20538;-80
2021/08/24 11:00:05;;;;;;;6.75;3.20;;;;;;;28.76;21.24;100010.66;5101879;28;20054;-80
2021/08/24 11:02:31;;;;;;;6.13;3.00;;;;;;;28.59;20.39;100021.34;5115979;28;20119;-80
2021/08/24 11:05:15;;;;;;;7.50;3.08;;;;;;;27.75;21.89;100016.38;5114210;28;20043;-76
2021/08/24 11:07:53;;;;;;;11.65;3.10;;;;;;;28.09;21.80;100001.41;5097982;28;20035;-77
2021/08/24 11:10:31;;;;;;;13.60;6.57;;;;;;;28.16;21.94;99992.34;5109204;27;20047;-76
2021/08/24 11:13:20;;;;;;;9.27;3.22;;;;;;;27.41;22.70;99992.19;5134929;27;20130;-79
2021/08/24 11:15:52;;;;;;;15.25;5.70;;;;;;;26.72;23.40;99993.88;5119580;27;20039;-76
2021/08/24 11:18:23;;;;;;;10.40;3.38;;;;;;;26.95;23.61;99986.06;5133688;27;20046;-77
2021/08/24 11:21:00;;;;;;;6.53;3.15;;;;;;;26.49;24.01;99995.22;5135498;27;20047;-79
2021/08/24 11:23:47;;;;;;;6.35;2.97;;;;;;;25.90;24.59;99989.75;5120197;27;20039;-81
2021/08/24 11:26:20;;;;;;;9.15;3.90;;;;;;;25.45;25.29;99986.91;5134950;27;20035;-78
2021/08/24 11:28:49;;;;;;;12.38;4.57;;;;;;;24.97;25.89;99980.59;5136606;27;20058;-76
2021/08/24 11:31:50;;;;;;;11.05;4.90;;;;;;;25.01;26.69;99984.53;5117998;27;20047;-77
2021/08/24 11:34:34;;;;;;;11.07;4.05;;;;;;;24.88;26.13;99987.22;5051320;28;20048;-77